createdAt,value
2023-01-30T01:27:09.035Z,11.60
2023-01-30T01:38:13.897Z,9.10
2023-01-30T01:49:13.802Z,10.10
2023-01-30T02:00:13.656Z,8.30
2023-01-30T02:11:13.538Z,8.80
2023-01-30T02:22:13.420Z,7.80
2023-01-30T02:33:13.291Z,8.30
2023-01-30T02:44:13.171Z,7.50
2023-01-30T02:55:13.068Z,9.10
2023-01-30T03:06:12.934Z,8.30
2023-01-30T03:17:12.812Z,8.60
2023-01-30T03:28:12.689Z,9.30
2023-01-30T03:39:12.574Z,0.90
2023-01-30T03:50:12.452Z,9.30
2023-01-30T04:01:12.361Z,9.80
2023-01-30T04:12:12.208Z,7.10
2023-01-30T04:23:12.104Z,8.70
2023-01-30T04:34:11.977Z,8.90
2023-01-30T04:45:11.853Z,9.70
2023-01-30T04:56:11.733Z,7.50
2023-01-30T05:07:11.620Z,8.90
2023-01-30T05:18:11.486Z,8.90
2023-01-30T05:29:11.413Z,7.40
2023-01-30T05:40:11.245Z,7.70
2023-01-30T05:51:11.144Z,6.40
2023-01-30T06:02:11.923Z,5.80
2023-01-30T06:13:10.904Z,7.90
2023-01-30T06:24:10.773Z,6.20
2023-01-30T06:35:10.650Z,8.40
2023-01-30T06:46:10.603Z,5.30
2023-01-30T06:57:10.416Z,5.70
2023-01-30T07:08:10.288Z,4.60
2023-01-30T07:19:10.168Z,5.50
2023-01-30T07:30:10.048Z,5.60
2023-01-30T07:41:09.927Z,7.60
2023-01-30T07:52:09.808Z,4.20
2023-01-30T08:03:09.696Z,6.00
2023-01-30T08:14:09.580Z,6.70
2023-01-30T08:25:09.457Z,7.10
2023-01-30T08:36:09.331Z,6.40
2023-01-30T08:47:09.207Z,7.50
2023-01-30T08:58:09.098Z,6.70
2023-01-30T09:09:08.965Z,5.50
2023-01-30T09:20:08.848Z,4.50
2023-01-30T09:31:08.870Z,4.20
2023-01-30T09:42:08.605Z,3.80
2023-01-30T09:53:08.498Z,3.10
2023-01-30T10:04:08.414Z,3.90
2023-01-30T10:15:08.240Z,4.80
2023-01-30T10:26:08.138Z,3.60
2023-01-30T10:37:08.013Z,5.00
2023-01-30T10:48:07.868Z,2.90
2023-01-30T10:59:07.777Z,5.20
2023-01-30T11:10:07.647Z,3.90
2023-01-30T11:21:07.512Z,3.20
2023-01-30T11:32:07.392Z,4.20
2023-01-30T11:43:07.256Z,4.00
2023-01-30T11:54:07.135Z,5.10
2023-01-30T12:05:07.019Z,4.60
2023-01-30T12:16:06.930Z,5.10
2023-01-30T12:27:06.766Z,5.00
2023-01-30T12:38:06.655Z,4.40
2023-01-30T12:49:11.703Z,2.90
2023-01-30T13:00:06.433Z,3.20
2023-01-30T13:11:06.279Z,2.70
2023-01-30T13:22:06.156Z,2.30
2023-01-30T13:33:06.068Z,3.90
2023-01-30T13:44:05.910Z,2.70
2023-01-30T13:55:05.855Z,3.20
2023-01-30T14:06:05.667Z,3.10
2023-01-30T14:17:05.547Z,4.50
2023-01-30T14:28:05.429Z,2.80
2023-01-30T14:39:05.298Z,3.30
2023-01-30T14:50:05.173Z,3.20
2023-01-30T15:01:06.067Z,3.40
2023-01-30T15:12:04.951Z,2.30
2023-01-30T15:23:04.870Z,2.50
2023-01-30T15:34:04.688Z,3.00
2023-01-30T15:45:04.572Z,2.40
2023-01-30T15:56:04.483Z,3.30
2023-01-30T16:07:04.325Z,3.00
2023-01-30T16:29:04.075Z,5.10
2023-01-30T16:40:03.951Z,5.00
2023-01-30T16:51:03.832Z,4.00
2023-01-30T17:02:03.756Z,4.70
2023-01-30T17:13:03.594Z,5.30
2023-01-30T17:24:03.486Z,5.50
2023-01-30T17:35:03.356Z,4.70
2023-01-30T17:46:03.278Z,4.00
2023-01-30T17:57:03.126Z,5.40
2023-01-30T18:08:02.973Z,4.60
2023-01-30T18:19:02.852Z,3.70
2023-01-30T18:30:02.738Z,4.50
2023-01-30T18:41:02.629Z,4.90
2023-01-30T18:52:02.496Z,4.70
2023-01-30T19:03:02.366Z,5.10
2023-01-30T19:14:02.241Z,5.20
2023-01-30T19:25:02.145Z,6.60
2023-01-30T19:36:01.995Z,6.40
2023-01-30T19:47:01.869Z,5.80
2023-01-30T19:58:01.762Z,5.50
2023-01-30T20:09:01.674Z,5.30
2023-01-30T20:20:01.517Z,5.20
2023-01-30T20:31:01.524Z,5.40
2023-01-30T20:42:01.260Z,6.00
2023-01-30T20:53:01.152Z,5.00
2023-01-30T21:04:01.048Z,4.70
2023-01-30T21:15:00.900Z,5.30
2023-01-30T21:26:00.772Z,5.20
2023-01-30T21:37:00.654Z,6.00
2023-01-30T21:48:00.531Z,5.90
